createdAt,value
2022-08-01T00:00:06.696Z,0.00
2022-08-01T00:01:06.658Z,0.00
2022-08-01T00:02:06.976Z,0.00
2022-08-01T00:03:06.585Z,0.00
2022-08-01T00:04:06.549Z,0.00
2022-08-01T00:05:06.513Z,0.00
2022-08-01T00:06:06.473Z,0.00
2022-08-01T00:07:06.442Z,0.00
2022-08-01T00:08:06.413Z,0.00
2022-08-01T00:09:06.366Z,0.00
2022-08-01T00:10:06.357Z,0.00
2022-08-01T00:11:06.295Z,0.00
2022-08-01T00:12:06.254Z,0.00
2022-08-01T00:13:06.221Z,0.00
2022-08-01T00:14:06.183Z,0.00
2022-08-01T00:15:06.154Z,0.00
2022-08-01T00:16:06.118Z,0.00
2022-08-01T00:17:07.536Z,0.00
2022-08-01T00:18:06.035Z,0.00
2022-08-01T00:19:05.999Z,0.00
2022-08-01T00:20:05.962Z,0.00
2022-08-01T00:21:05.927Z,0.00
2022-08-01T00:22:06.261Z,0.00
2022-08-01T00:23:05.857Z,0.00
2022-08-01T00:24:05.813Z,0.00
2022-08-01T00:25:05.779Z,0.00
2022-08-01T00:26:05.744Z,0.00
2022-08-01T00:27:05.717Z,0.00
2022-08-01T00:28:05.670Z,0.00
2022-08-01T00:29:06.590Z,0.00
2022-08-01T00:30:10.687Z,0.00
2022-08-01T00:31:05.559Z,0.00
2022-08-01T00:32:05.918Z,0.00
2022-08-01T00:33:05.487Z,0.00
2022-08-01T00:34:05.451Z,0.00
2022-08-01T00:35:05.416Z,0.00
2022-08-01T00:36:05.386Z,0.00
2022-08-01T00:37:05.341Z,0.00
2022-08-01T00:38:05.318Z,0.00
2022-08-01T00:39:05.275Z,0.00
2022-08-01T00:40:05.241Z,0.00
2022-08-01T00:41:05.194Z,0.00
2022-08-01T00:42:05.548Z,0.00
2022-08-01T00:43:05.137Z,0.00
2022-08-01T00:44:05.085Z,0.00
2022-08-01T00:45:05.048Z,0.00
2022-08-01T00:46:05.023Z,0.00
2022-08-01T00:47:04.974Z,0.00
2022-08-01T00:48:04.937Z,0.00
2022-08-01T00:49:04.931Z,0.00
2022-08-01T00:50:04.874Z,0.00
2022-08-01T00:51:04.828Z,0.00
2022-08-01T00:52:05.110Z,0.00
2022-08-01T00:53:04.756Z,0.00
2022-08-01T00:54:04.711Z,0.00
2022-08-01T00:55:04.697Z,0.00
2022-08-01T00:56:04.646Z,0.00
2022-08-01T00:57:04.626Z,0.00
2022-08-01T00:58:06.092Z,0.00
2022-08-01T00:59:04.537Z,0.00
2022-08-01T01:00:04.496Z,0.00
2022-08-01T01:01:04.510Z,0.00
2022-08-01T01:02:04.769Z,0.00
2022-08-01T01:03:04.412Z,0.00
2022-08-01T01:04:08.519Z,0.00
2022-08-01T01:05:04.317Z,0.00
2022-08-01T01:06:04.277Z,0.00
2022-08-01T01:07:04.243Z,0.00
2022-08-01T01:08:04.202Z,0.00
2022-08-01T01:09:04.184Z,0.00
2022-08-01T01:10:04.136Z,0.00
2022-08-01T01:11:04.094Z,0.00
2022-08-01T01:12:04.609Z,0.00
2022-08-01T01:13:04.021Z,0.00
2022-08-01T01:14:03.983Z,0.00
2022-08-01T01:15:03.971Z,0.00
2022-08-01T01:16:03.910Z,0.00
2022-08-01T01:17:03.878Z,0.00
2022-08-01T01:18:03.843Z,0.00
2022-08-01T01:19:03.809Z,0.00
2022-08-01T01:20:03.763Z,0.00
2022-08-01T01:21:03.752Z,0.00
2022-08-01T01:22:03.960Z,0.00
2022-08-01T01:23:03.658Z,0.00
2022-08-01T01:24:03.614Z,0.00
2022-08-01T01:25:03.583Z,0.00
2022-08-01T01:26:03.543Z,0.00
2022-08-01T01:27:03.520Z,0.00
2022-08-01T01:28:03.489Z,0.00
2022-08-01T01:29:03.432Z,0.00
2022-08-01T01:30:03.399Z,0.00
2022-08-01T01:31:03.361Z,0.00
2022-08-01T01:32:03.682Z,0.00
2022-08-01T01:33:03.285Z,0.00
2022-08-01T01:34:03.258Z,0.00
2022-08-01T01:35:03.212Z,0.00
2022-08-01T01:36:03.178Z,0.00
2022-08-01T01:37:03.137Z,0.00
2022-08-01T01:38:03.101Z,0.00
2022-08-01T01:39:03.078Z,0.00
2022-08-01T01:40:03.026Z,0.00
2022-08-01T01:41:02.992Z,0.00
2022-08-01T01:42:03.195Z,0.00
2022-08-01T01:43:02.919Z,0.00
2022-08-01T01:44:02.879Z,0.00
2022-08-01T01:45:02.870Z,0.00
2022-08-01T01:46:02.821Z,0.00
2022-08-01T01:47:02.790Z,0.00
2022-08-01T01:48:02.738Z,0.00
2022-08-01T01:49:02.759Z,0.00
2022-08-01T01:50:02.669Z,0.00
2022-08-01T01:51:02.637Z,0.00
2022-08-01T01:52:03.167Z,0.00
2022-08-01T01:53:02.553Z,0.00
2022-08-01T01:54:02.514Z,0.00
2022-08-01T01:55:02.490Z,0.00
2022-08-01T01:56:02.440Z,0.00
2022-08-01T01:57:02.416Z,0.00
2022-08-01T01:58:02.366Z,0.00
2022-08-01T01:59:02.331Z,0.00
2022-08-01T02:00:02.298Z,0.00
2022-08-01T02:01:02.885Z,0.00
2022-08-01T02:02:05.972Z,0.00
2022-08-01T02:03:02.254Z,0.00
2022-08-01T02:04:02.148Z,0.00
2022-08-01T02:05:02.122Z,0.00
2022-08-01T02:06:02.076Z,0.00
2022-08-01T02:07:02.039Z,0.00
2022-08-01T02:08:01.998Z,0.00
2022-08-01T02:09:01.978Z,0.00
2022-08-01T02:10:01.933Z,0.00
2022-08-01T02:11:01.894Z,0.00
2022-08-01T02:12:08.133Z,0.00
2022-08-01T02:13:01.820Z,0.00
2022-08-01T02:14:01.780Z,0.00
2022-08-01T02:15:01.762Z,0.00
2022-08-01T02:16:01.708Z,0.00
2022-08-01T02:17:01.672Z,0.00
2022-08-01T02:18:01.633Z,0.00
2022-08-01T02:19:01.596Z,0.00
2022-08-01T02:20:01.576Z,0.00
2022-08-01T02:21:01.523Z,0.00
2022-08-01T02:22:01.488Z,0.00
2022-08-01T02:23:01.458Z,0.00
2022-08-01T02:24:05.726Z,0.00
2022-08-01T02:25:01.378Z,0.00
2022-08-01T02:26:10.872Z,0.00
2022-08-01T02:27:01.304Z,0.00
2022-08-01T02:28:01.267Z,0.00
2022-08-01T02:29:01.244Z,0.00
2022-08-01T02:30:01.204Z,0.00
2022-08-01T02:31:01.158Z,0.00
2022-08-01T02:32:01.139Z,0.00
2022-08-01T02:33:01.086Z,0.00
2022-08-01T02:34:01.046Z,0.00
2022-08-01T02:35:01.012Z,0.00
2022-08-01T02:36:30.741Z,0.00
2022-08-01T02:37:00.952Z,0.00
2022-08-01T02:38:00.916Z,0.00
2022-08-01T02:39:00.877Z,0.00
2022-08-01T02:40:00.823Z,0.00
2022-08-01T02:41:00.794Z,0.00
2022-08-01T02:42:00.754Z,0.00
2022-08-01T02:43:00.721Z,0.00
2022-08-01T02:44:00.691Z,0.00
2022-08-01T02:45:00.644Z,0.00
2022-08-01T02:46:00.612Z,0.00
2022-08-01T02:47:00.584Z,0.00
2022-08-01T02:48:00.534Z,0.00
2022-08-01T02:49:00.623Z,0.00
2022-08-01T02:50:00.472Z,0.00
2022-08-01T02:51:00.427Z,0.00
2022-08-01T02:52:00.394Z,0.00
2022-08-01T02:53:00.352Z,0.00
2022-08-01T02:54:00.314Z,0.00
2022-08-01T02:55:00.293Z,0.00
2022-08-01T02:56:00.242Z,0.00
2022-08-01T02:57:00.206Z,0.00
2022-08-01T02:58:00.843Z,0.00
2022-08-01T02:59:00.137Z,0.00
2022-08-01T03:00:00.127Z,0.00
2022-08-01T03:01:00.072Z,0.00
2022-08-01T03:02:00.643Z,0.00
2022-08-01T03:02:59.997Z,0.00
2022-08-01T03:03:59.953Z,0.00
2022-08-01T03:04:59.917Z,0.00
2022-08-01T03:05:59.874Z,0.00
2022-08-01T03:06:59.843Z,0.00
2022-08-01T03:08:03.811Z,0.00
2022-08-01T03:08:59.778Z,0.00
2022-08-01T03:09:59.731Z,0.00
2022-08-01T03:10:59.694Z,0.00
2022-08-01T03:11:59.665Z,0.00
2022-08-01T03:12:59.623Z,0.00
2022-08-01T03:13:59.582Z,0.00
2022-08-01T03:15:08.418Z,0.00
2022-08-01T03:15:59.508Z,0.00
2022-08-01T03:16:59.474Z,0.00
2022-08-01T03:17:59.436Z,0.00
2022-08-01T03:18:59.403Z,0.00
2022-08-01T03:19:59.368Z,0.00
2022-08-01T03:20:59.350Z,0.00
2022-08-01T03:21:59.302Z,0.00
2022-08-01T03:22:59.256Z,0.00
2022-08-01T03:23:59.215Z,0.00
2022-08-01T03:24:59.180Z,0.00
2022-08-01T03:25:59.145Z,0.00
2022-08-01T03:26:59.109Z,0.00
2022-08-01T03:27:59.077Z,0.00
2022-08-01T03:28:59.034Z,0.00
2022-08-01T03:29:59.000Z,0.00
2022-08-01T03:30:58.959Z,0.00
2022-08-01T03:31:58.935Z,0.00
2022-08-01T03:32:58.885Z,0.00
2022-08-01T03:34:01.757Z,0.00
2022-08-01T03:34:58.812Z,0.00
2022-08-01T03:35:58.773Z,0.00
2022-08-01T03:36:58.742Z,0.00
2022-08-01T03:38:16.256Z,0.00
2022-08-01T03:38:58.664Z,0.00
2022-08-01T03:39:58.630Z,0.00
2022-08-01T03:40:58.593Z,0.00
2022-08-01T03:41:58.555Z,0.00
2022-08-01T03:42:58.522Z,0.00
2022-08-01T03:43:58.669Z,0.00
2022-08-01T03:44:58.446Z,0.00
2022-08-01T03:45:58.410Z,0.00
2022-08-01T03:46:58.375Z,0.00
2022-08-01T03:47:58.348Z,0.00
2022-08-01T03:48:58.330Z,0.00
2022-08-01T03:49:58.266Z,0.00
2022-08-01T03:50:58.229Z,0.00
2022-08-01T03:51:58.189Z,0.00
2022-08-01T03:52:58.155Z,0.00
2022-08-01T03:53:58.138Z,0.00
2022-08-01T03:54:58.087Z,0.00
2022-08-01T03:55:58.048Z,0.00
2022-08-01T03:56:58.006Z,0.00
2022-08-01T03:57:57.971Z,0.00
2022-08-01T03:58:57.934Z,0.00
2022-08-01T03:59:57.906Z,0.00
2022-08-01T04:00:57.910Z,0.00
2022-08-01T04:01:57.829Z,0.00
2022-08-01T04:02:57.786Z,0.00
2022-08-01T04:03:57.751Z,0.00
2022-08-01T04:04:57.712Z,0.00
2022-08-01T04:05:57.713Z,0.00
2022-08-01T04:06:57.641Z,5.63
2022-08-01T04:07:57.604Z,5.63
2022-08-01T04:08:57.567Z,5.63
2022-08-01T04:09:57.533Z,5.63
2022-08-01T04:10:57.511Z,5.63
2022-08-01T04:11:57.457Z,5.63
2022-08-01T04:12:57.422Z,5.63
2022-08-01T04:13:57.740Z,11.25
2022-08-01T04:14:57.351Z,11.25
2022-08-01T04:15:57.317Z,11.25
2022-08-01T04:16:57.300Z,11.25
2022-08-01T04:17:57.240Z,11.25
2022-08-01T04:18:57.203Z,16.88
2022-08-01T04:19:57.164Z,22.50
2022-08-01T04:20:57.128Z,22.50
2022-08-01T04:21:57.093Z,16.88
2022-08-01T04:22:57.081Z,22.50
2022-08-01T04:23:57.021Z,22.50
2022-08-01T04:24:57.250Z,22.50
2022-08-01T04:25:56.949Z,22.50
2022-08-01T04:26:56.910Z,28.13
2022-08-01T04:27:56.887Z,28.13
2022-08-01T04:28:56.846Z,28.13
2022-08-01T04:29:56.803Z,33.75
2022-08-01T04:31:01.588Z,39.38
2022-08-01T04:31:56.727Z,39.38
2022-08-01T04:32:56.705Z,45.00
2022-08-01T04:33:56.653Z,50.63
2022-08-01T04:34:56.627Z,56.25
2022-08-01T04:36:01.503Z,61.88
2022-08-01T04:36:56.541Z,73.13
2022-08-01T04:37:56.506Z,78.75
2022-08-01T04:38:56.466Z,90.00
2022-08-01T04:39:56.432Z,84.38
2022-08-01T04:40:56.409Z,84.38
2022-08-01T04:41:56.359Z,90.00
2022-08-01T04:42:56.334Z,90.00
2022-08-01T04:43:56.297Z,95.63
2022-08-01T04:44:56.248Z,101.25
2022-08-01T04:45:56.212Z,101.25
2022-08-01T04:46:56.174Z,106.88
2022-08-01T04:47:56.137Z,106.88
2022-08-01T04:48:56.160Z,112.50
2022-08-01T04:49:56.076Z,112.50
2022-08-01T04:50:56.027Z,106.88
2022-08-01T04:51:55.992Z,95.63
2022-08-01T04:52:55.953Z,90.00
2022-08-01T04:53:55.917Z,90.00
2022-08-01T04:54:55.880Z,90.00
2022-08-01T04:55:55.855Z,95.63
2022-08-01T04:56:55.806Z,95.63
2022-08-01T04:57:55.771Z,90.00
2022-08-01T04:58:55.734Z,90.00
2022-08-01T04:59:55.698Z,84.38
2022-08-01T05:00:55.686Z,73.13
2022-08-01T05:01:55.637Z,61.88
2022-08-01T05:02:55.611Z,61.88
2022-08-01T05:03:55.553Z,61.88
2022-08-01T05:04:55.516Z,56.25
2022-08-01T05:05:55.484Z,56.25
2022-08-01T05:06:55.444Z,56.25
2022-08-01T05:07:55.418Z,61.88
2022-08-01T05:08:55.371Z,61.88
2022-08-01T05:09:55.332Z,50.63
2022-08-01T05:10:55.296Z,39.38
2022-08-01T05:11:55.271Z,39.38
2022-08-01T05:12:55.222Z,50.63
2022-08-01T05:13:55.209Z,50.63
2022-08-01T05:14:55.151Z,56.25
2022-08-01T05:15:55.119Z,61.88
2022-08-01T05:16:55.077Z,67.50
2022-08-01T05:17:55.043Z,67.50
2022-08-01T05:18:55.005Z,73.13
2022-08-01T05:19:54.977Z,73.13
2022-08-01T05:20:54.932Z,78.75
2022-08-01T05:21:54.894Z,90.00
2022-08-01T05:22:54.861Z,90.00
2022-08-01T05:23:54.823Z,95.63
2022-08-01T05:24:54.796Z,95.63
2022-08-01T05:25:57.350Z,95.63
2022-08-01T05:26:54.714Z,95.63
2022-08-01T05:27:54.675Z,95.63
2022-08-01T05:28:55.388Z,90.00
2022-08-01T05:29:54.602Z,95.63
2022-08-01T05:30:54.564Z,101.25
2022-08-01T05:31:54.538Z,112.50
2022-08-01T05:32:54.504Z,135.00
2022-08-01T05:33:54.466Z,157.50
2022-08-01T05:34:54.422Z,180.00
2022-08-01T05:35:54.390Z,174.38
2022-08-01T05:36:57.701Z,140.63
2022-08-01T05:37:54.339Z,140.63
2022-08-01T05:38:54.273Z,168.75
2022-08-01T05:39:54.238Z,191.25
2022-08-01T05:40:54.202Z,225.00
2022-08-01T05:41:54.170Z,264.38
2022-08-01T05:42:54.137Z,298.13
2022-08-01T05:43:54.103Z,298.13
2022-08-01T05:44:54.056Z,270.00
2022-08-01T05:45:54.020Z,241.88
2022-08-01T05:46:53.982Z,253.13
2022-08-01T05:47:53.950Z,258.75
2022-08-01T05:48:53.961Z,258.75
2022-08-01T05:49:53.902Z,219.38
2022-08-01T05:50:58.069Z,219.38
2022-08-01T05:51:53.807Z,241.88
2022-08-01T05:52:53.773Z,241.88
2022-08-01T05:53:53.742Z,202.50
2022-08-01T05:54:53.707Z,185.63
2022-08-01T05:55:53.657Z,208.13
2022-08-01T05:56:53.628Z,253.13
2022-08-01T05:57:53.602Z,320.63
2022-08-01T05:58:53.548Z,416.25
2022-08-01T05:59:53.512Z,455.63
2022-08-01T06:00:53.477Z,421.88
2022-08-01T06:01:53.519Z,410.63
2022-08-01T06:02:53.405Z,354.38
2022-08-01T06:03:53.387Z,326.25
2022-08-01T06:04:53.333Z,309.38
2022-08-01T06:05:53.302Z,275.63
2022-08-01T06:06:53.260Z,298.13
2022-08-01T06:07:53.248Z,309.38
2022-08-01T06:08:53.187Z,281.25
2022-08-01T06:09:53.152Z,303.75
2022-08-01T06:10:53.116Z,303.75
2022-08-01T06:11:53.077Z,309.38
2022-08-01T06:12:53.045Z,320.63
2022-08-01T06:13:53.025Z,315.00
2022-08-01T06:14:52.977Z,309.38
2022-08-01T06:15:52.955Z,275.63
2022-08-01T06:16:52.908Z,264.38
2022-08-01T06:17:52.888Z,264.38
2022-08-01T06:18:56.526Z,275.63
2022-08-01T06:19:52.796Z,264.38
2022-08-01T06:20:52.755Z,241.88
2022-08-01T06:21:52.731Z,275.63
2022-08-01T06:22:52.808Z,298.13
2022-08-01T06:23:52.674Z,326.25
2022-08-01T06:24:52.630Z,354.38
2022-08-01T06:25:52.578Z,416.25
2022-08-01T06:26:52.548Z,444.38
2022-08-01T06:27:52.511Z,450.00
2022-08-01T06:28:52.494Z,405.00
2022-08-01T06:29:54.101Z,410.63
2022-08-01T06:33:19.581Z,528.75
2022-08-01T06:34:19.539Z,556.88
2022-08-01T06:35:19.539Z,613.13
2022-08-01T06:36:19.466Z,658.13
2022-08-01T06:37:19.432Z,697.50
2022-08-01T06:38:19.413Z,776.25
2022-08-01T06:39:19.358Z,894.38
2022-08-01T06:40:19.329Z,900.00
2022-08-01T06:41:19.301Z,793.13
2022-08-01T06:42:19.255Z,568.13
2022-08-01T06:43:19.219Z,438.75
2022-08-01T06:44:19.181Z,382.50
2022-08-01T06:45:19.166Z,433.13
2022-08-01T06:46:19.150Z,478.13
2022-08-01T06:47:19.080Z,489.38
2022-08-01T06:48:19.041Z,517.50
2022-08-01T06:49:19.056Z,562.50
2022-08-01T06:50:18.970Z,601.88
2022-08-01T06:51:18.935Z,675.00
2022-08-01T06:52:18.911Z,810.00
2022-08-01T06:53:18.866Z,933.75
2022-08-01T06:54:18.829Z,1085.63
2022-08-01T06:55:18.794Z,1102.50
2022-08-01T06:56:18.763Z,1186.88
2022-08-01T06:57:18.726Z,1046.25
2022-08-01T06:58:18.710Z,1001.25
2022-08-01T06:59:18.671Z,978.75
2022-08-01T07:00:18.619Z,1029.38
2022-08-01T07:01:18.694Z,1057.50
2022-08-01T07:02:18.553Z,1355.63
2022-08-01T07:03:18.513Z,1186.88
2022-08-01T07:04:18.485Z,787.50
2022-08-01T07:05:18.461Z,641.25
2022-08-01T07:06:18.441Z,613.13
2022-08-01T07:07:18.422Z,1276.88
2022-08-01T07:08:18.345Z,1248.75
2022-08-01T07:09:18.310Z,956.25
2022-08-01T07:10:18.277Z,691.88
2022-08-01T07:11:18.258Z,1299.38
2022-08-01T07:12:18.220Z,905.63
2022-08-01T07:13:18.176Z,1068.75
2022-08-01T07:14:18.139Z,1006.88
2022-08-01T07:15:18.108Z,1063.13
2022-08-01T07:16:18.073Z,1029.38
2022-08-01T07:17:18.059Z,1046.25
2022-08-01T07:18:18.005Z,1102.50
2022-08-01T07:19:17.985Z,1091.25
2022-08-01T07:20:17.941Z,1051.88
2022-08-01T07:21:40.666Z,1462.50
2022-08-01T07:22:23.617Z,939.38
2022-08-01T07:23:17.843Z,866.25
2022-08-01T07:24:19.496Z,832.50
2022-08-01T07:25:18.042Z,961.88
2022-08-01T07:26:17.741Z,1051.88
2022-08-01T07:27:25.608Z,1153.13
2022-08-01T07:28:17.675Z,1445.63
2022-08-01T07:29:17.643Z,1091.25
2022-08-01T07:30:17.609Z,990.00
2022-08-01T07:31:17.590Z,1400.63
2022-08-01T07:32:17.544Z,1366.88
2022-08-01T07:33:17.510Z,1687.50
2022-08-01T07:34:17.476Z,1192.50
2022-08-01T07:35:17.448Z,1023.75
2022-08-01T07:36:17.419Z,922.50
2022-08-01T07:37:17.389Z,871.88
2022-08-01T07:38:17.345Z,855.00
2022-08-01T07:39:17.327Z,849.38
2022-08-01T07:40:17.281Z,849.38
2022-08-01T07:41:17.252Z,810.00
2022-08-01T07:42:17.232Z,781.88
2022-08-01T07:43:17.186Z,810.00
2022-08-01T07:44:17.162Z,877.50
2022-08-01T07:45:17.120Z,911.25
2022-08-01T07:46:17.098Z,916.88
2022-08-01T07:47:17.051Z,911.25
2022-08-01T07:48:17.018Z,928.13
2022-08-01T07:49:17.038Z,995.63
2022-08-01T07:50:16.951Z,1091.25
2022-08-01T07:51:16.929Z,1158.75
2022-08-01T07:52:17.038Z,1192.50
2022-08-01T07:53:16.856Z,1158.75
2022-08-01T07:54:16.823Z,1209.38
2022-08-01T07:55:16.942Z,1141.88
2022-08-01T07:56:16.757Z,1186.88
2022-08-01T07:57:16.736Z,1215.00
2022-08-01T07:58:16.689Z,1209.38
2022-08-01T07:59:17.489Z,1378.13
2022-08-01T08:00:16.622Z,1158.75
2022-08-01T08:01:16.591Z,1158.75
2022-08-01T08:02:16.611Z,1035.00
2022-08-01T08:03:16.532Z,967.50
2022-08-01T08:04:16.491Z,911.25
2022-08-01T08:05:16.456Z,883.13
2022-08-01T08:06:16.422Z,967.50
2022-08-01T08:07:16.396Z,1091.25
2022-08-01T08:08:16.358Z,1198.13
2022-08-01T08:09:16.333Z,1254.38
2022-08-01T08:10:16.290Z,1226.25
2022-08-01T08:11:16.474Z,1125.00
2022-08-01T08:12:16.226Z,1091.25
2022-08-01T08:13:16.200Z,1141.88
2022-08-01T08:14:16.172Z,1209.38
2022-08-01T08:15:16.160Z,1237.50
2022-08-01T08:16:16.093Z,1355.63
2022-08-01T08:17:16.062Z,1456.88
2022-08-01T08:18:16.062Z,1366.88
2022-08-01T08:19:16.004Z,1271.25
2022-08-01T08:20:15.965Z,1181.25
2022-08-01T08:21:15.957Z,1080.00
2022-08-01T08:22:15.901Z,1164.38
2022-08-01T08:23:15.866Z,1237.50
2022-08-01T08:24:15.834Z,1687.50
2022-08-01T08:25:15.802Z,2311.88
2022-08-01T08:26:15.778Z,2520.00
2022-08-01T08:27:15.742Z,2295.00
2022-08-01T08:28:15.706Z,2030.63
2022-08-01T08:29:15.673Z,1771.88
2022-08-01T08:30:15.883Z,1586.25
2022-08-01T08:31:25.242Z,1704.38
2022-08-01T08:32:15.586Z,1254.38
2022-08-01T08:33:15.542Z,1271.25
2022-08-01T08:34:15.510Z,984.38
2022-08-01T08:35:22.947Z,967.50
2022-08-01T08:36:15.445Z,877.50
2022-08-01T08:37:15.483Z,832.50
2022-08-01T08:38:15.401Z,933.75
2022-08-01T08:39:15.353Z,1125.00
2022-08-01T08:40:15.319Z,1282.50
2022-08-01T08:41:20.666Z,1305.00
2022-08-01T08:42:15.257Z,1260.00
2022-08-01T08:43:15.227Z,1321.88
2022-08-01T08:44:15.200Z,1411.88
2022-08-01T08:45:15.171Z,1243.13
2022-08-01T08:46:15.126Z,1141.88
2022-08-01T08:47:19.750Z,1130.63
2022-08-01T08:48:15.427Z,1265.63
2022-08-01T08:49:15.204Z,1350.00
2022-08-01T08:50:15.038Z,3127.50
2022-08-01T08:51:14.972Z,2587.50
2022-08-01T08:52:14.933Z,1445.63
2022-08-01T08:53:18.592Z,1366.88
2022-08-01T08:54:15.071Z,2103.75
2022-08-01T08:55:15.031Z,3330.00
2022-08-01T08:56:14.804Z,2716.88
2022-08-01T08:57:14.777Z,2311.88
2022-08-01T08:58:14.741Z,3054.38
2022-08-01T08:59:14.718Z,3628.13
2022-08-01T09:00:14.677Z,3673.13
2022-08-01T09:01:14.673Z,1558.13
2022-08-01T09:02:14.909Z,1288.13
2022-08-01T09:03:14.650Z,1119.38
2022-08-01T09:04:14.550Z,939.38
2022-08-01T09:05:19.245Z,843.75
2022-08-01T09:06:14.500Z,821.25
2022-08-01T09:07:14.462Z,793.13
2022-08-01T09:08:14.423Z,793.13
2022-08-01T09:09:14.393Z,832.50
2022-08-01T09:10:14.363Z,826.88
2022-08-01T09:11:22.602Z,753.75
2022-08-01T09:12:14.321Z,1006.88
2022-08-01T09:13:14.268Z,900.00
2022-08-01T09:14:14.698Z,1282.50
2022-08-01T09:15:23.588Z,3746.25
2022-08-01T09:16:14.175Z,3408.75
2022-08-01T09:17:14.145Z,1445.63
2022-08-01T09:18:14.107Z,1355.63
2022-08-01T09:19:15.992Z,1282.50
2022-08-01T09:20:14.057Z,2013.75
2022-08-01T09:21:14.010Z,888.75
2022-08-01T09:22:13.982Z,860.63
2022-08-01T09:23:13.948Z,984.38
2022-08-01T09:24:13.914Z,1125.00
2022-08-01T09:25:13.885Z,1147.50
2022-08-01T09:26:13.857Z,1080.00
2022-08-01T09:27:13.819Z,984.38
2022-08-01T09:28:13.794Z,1293.75
2022-08-01T09:29:13.753Z,843.75
2022-08-01T09:30:13.978Z,765.00
2022-08-01T09:31:13.689Z,787.50
2022-08-01T09:32:16.412Z,888.75
2022-08-01T09:33:21.503Z,1035.00
2022-08-01T09:34:13.587Z,1293.75
2022-08-01T09:35:13.556Z,1906.88
2022-08-01T09:36:13.523Z,3639.38
2022-08-01T09:37:13.500Z,4089.38
2022-08-01T09:38:13.461Z,1980.00
2022-08-01T09:39:13.425Z,1698.75
2022-08-01T09:40:13.393Z,3296.25
2022-08-01T09:41:14.267Z,2565.00
2022-08-01T09:42:13.343Z,1884.38
2022-08-01T09:43:14.863Z,1608.75
2022-08-01T09:44:13.263Z,1586.25
2022-08-01T09:45:23.330Z,2092.50
2022-08-01T09:46:13.201Z,2058.75
2022-08-01T09:47:15.366Z,2840.63
2022-08-01T09:48:13.145Z,3701.25
2022-08-01T09:49:13.204Z,2340.00
2022-08-01T09:50:13.073Z,2756.25
2022-08-01T09:51:13.059Z,2700.00
2022-08-01T09:52:13.012Z,2092.50
2022-08-01T09:53:30.238Z,1968.75
2022-08-01T09:54:12.946Z,1704.38
2022-08-01T09:55:12.915Z,1816.88
2022-08-01T09:56:12.887Z,1490.63
2022-08-01T09:57:12.858Z,1552.50
2022-08-01T09:58:12.829Z,2666.25
2022-08-01T09:59:12.793Z,3847.50
2022-08-01T10:00:24.243Z,4224.38
2022-08-01T10:01:12.728Z,3639.38
2022-08-01T10:02:12.701Z,2986.88
2022-08-01T10:03:12.751Z,2896.88
2022-08-01T10:04:12.664Z,2165.63
2022-08-01T10:05:20.921Z,1490.63
2022-08-01T10:06:12.574Z,1513.13
2022-08-01T10:07:12.542Z,2975.63
2022-08-01T10:08:12.512Z,4522.50
2022-08-01T10:09:12.492Z,4455.00
2022-08-01T10:10:12.453Z,2160.00
2022-08-01T10:11:12.545Z,1108.13
2022-08-01T10:12:15.985Z,1254.38
2022-08-01T10:13:12.361Z,3735.00
2022-08-01T10:14:12.343Z,3020.63
2022-08-01T10:15:12.316Z,4044.38
2022-08-01T10:16:12.355Z,3920.63
2022-08-01T10:17:12.238Z,4066.88
2022-08-01T10:18:16.584Z,4173.75
2022-08-01T10:19:15.509Z,2446.88
2022-08-01T10:20:28.838Z,2131.88
2022-08-01T10:21:12.130Z,2295.00
2022-08-01T10:22:12.089Z,1873.13
2022-08-01T10:23:12.060Z,4168.13
2022-08-01T10:24:12.031Z,4393.13
2022-08-01T10:25:12.014Z,4516.88
2022-08-01T10:26:11.971Z,3189.38
2022-08-01T10:27:12.711Z,1940.63
2022-08-01T10:28:11.913Z,2649.38
2022-08-01T10:29:24.353Z,4381.88
2022-08-01T10:30:19.447Z,4280.63
2022-08-01T10:31:12.534Z,4381.88
2022-08-01T10:32:11.796Z,4561.88
2022-08-01T10:33:11.781Z,4657.50
2022-08-01T10:34:11.737Z,1760.63
2022-08-01T10:35:15.073Z,1074.38
2022-08-01T10:36:11.682Z,939.38
2022-08-01T10:37:11.657Z,990.00
2022-08-01T10:38:13.741Z,1215.00
2022-08-01T10:39:11.607Z,1816.88
2022-08-01T10:40:29.215Z,4353.75
2022-08-01T10:41:11.539Z,3853.13
2022-08-01T10:42:15.658Z,3684.38
2022-08-01T10:43:11.481Z,4511.25
2022-08-01T10:44:11.453Z,4455.00
2022-08-01T10:45:11.439Z,4528.13
2022-08-01T10:46:11.394Z,4151.25
2022-08-01T10:47:11.371Z,3172.50
2022-08-01T10:48:11.339Z,1023.75
2022-08-01T10:49:11.326Z,860.63
2022-08-01T10:50:11.280Z,798.75
2022-08-01T10:51:17.861Z,804.38
2022-08-01T10:52:11.234Z,703.13
2022-08-01T10:53:16.011Z,720.00
2022-08-01T10:54:11.168Z,843.75
2022-08-01T10:55:11.140Z,1136.25
2022-08-01T10:56:13.181Z,1231.88
2022-08-01T10:57:11.080Z,1063.13
2022-08-01T10:58:11.052Z,855.00
2022-08-01T10:59:11.817Z,849.38
2022-08-01T11:00:10.988Z,950.63
2022-08-01T11:01:11.021Z,1130.63
2022-08-01T11:02:10.954Z,1305.00
2022-08-01T11:03:10.901Z,1636.88
2022-08-01T11:04:16.014Z,1524.38
2022-08-01T11:05:10.839Z,2424.38
2022-08-01T11:06:10.821Z,1479.38
2022-08-01T11:07:11.128Z,1603.13
2022-08-01T11:08:10.778Z,2261.25
2022-08-01T11:09:10.715Z,3431.25
2022-08-01T11:10:14.878Z,4162.50
2022-08-01T11:11:10.652Z,1395.00
2022-08-01T11:12:13.641Z,1192.50
2022-08-01T11:13:10.590Z,1153.13
2022-08-01T11:14:10.686Z,1316.25
2022-08-01T11:15:10.537Z,1383.75
2022-08-01T11:16:16.410Z,1355.63
2022-08-01T11:17:10.465Z,3639.38
2022-08-01T11:18:10.434Z,1738.13
2022-08-01T11:19:10.405Z,1642.50
2022-08-01T11:20:10.383Z,2148.75
2022-08-01T11:21:58.606Z,1850.63
2022-08-01T11:22:10.310Z,1980.00
2022-08-01T11:23:10.280Z,1760.63
2022-08-01T11:24:10.247Z,1288.13
2022-08-01T11:25:10.217Z,1198.13
2022-08-01T11:26:10.696Z,1141.88
2022-08-01T11:27:10.156Z,2171.25
2022-08-01T11:28:14.824Z,1704.38
2022-08-01T11:29:19.897Z,3071.25
2022-08-01T11:30:12.894Z,3200.63
2022-08-01T11:31:11.300Z,3110.63
2022-08-01T11:32:09.999Z,3105.00
2022-08-01T11:33:10.399Z,2508.75
2022-08-01T11:34:09.935Z,2261.25
2022-08-01T11:35:09.904Z,3217.50
2022-08-01T11:36:09.876Z,3465.00
2022-08-01T11:37:10.215Z,3650.63
2022-08-01T11:38:09.811Z,3645.00
2022-08-01T11:39:13.546Z,3414.38
2022-08-01T11:40:09.754Z,3245.63
2022-08-01T11:41:09.723Z,3476.25
2022-08-01T11:42:09.692Z,3386.25
2022-08-01T11:43:09.672Z,3358.13
2022-08-01T11:44:09.636Z,3155.63
2022-08-01T11:45:09.604Z,3020.63
2022-08-01T11:46:09.605Z,3076.88
2022-08-01T11:47:10.607Z,3639.38
2022-08-01T11:48:10.168Z,3594.38
2022-08-01T11:49:09.540Z,3633.75
2022-08-01T11:50:09.456Z,3729.38
2022-08-01T11:51:09.428Z,3661.88
2022-08-01T11:52:09.401Z,3678.75
2022-08-01T11:53:09.370Z,3538.13
2022-08-01T11:54:09.344Z,3555.00
2022-08-01T11:55:10.369Z,3616.88
2022-08-01T11:56:09.286Z,3611.25
2022-08-01T11:57:10.220Z,3386.25
2022-08-01T11:58:22.250Z,3487.50
2022-08-01T11:59:15.079Z,3566.25
2022-08-01T12:00:09.256Z,2480.63
2022-08-01T12:01:09.218Z,3470.63
2022-08-01T12:02:09.164Z,1586.25
2022-08-01T12:03:09.092Z,1355.63
2022-08-01T12:04:09.062Z,1164.38
2022-08-01T12:05:11.640Z,1215.00
2022-08-01T12:06:09.008Z,1164.38
2022-08-01T12:07:09.203Z,1046.25
2022-08-01T12:08:08.947Z,905.63
2022-08-01T12:09:12.046Z,838.13
2022-08-01T12:10:08.890Z,798.75
2022-08-01T12:11:08.879Z,826.88
2022-08-01T12:12:08.839Z,945.00
2022-08-01T12:13:08.802Z,1147.50
2022-08-01T12:14:08.773Z,1029.38
2022-08-01T12:15:10.132Z,1181.25
2022-08-01T12:16:08.806Z,1715.63
2022-08-01T12:17:09.088Z,1569.38
2022-08-01T12:18:08.913Z,3470.63
2022-08-01T12:19:11.751Z,3571.88
2022-08-01T12:20:08.590Z,1631.25
2022-08-01T12:21:08.557Z,3645.00
2022-08-01T12:22:08.527Z,3650.63
2022-08-01T12:23:08.509Z,3453.75
2022-08-01T12:24:08.483Z,2896.88
2022-08-01T12:25:08.438Z,3391.88
2022-08-01T12:26:08.404Z,3352.50
2022-08-01T12:27:08.820Z,3403.13
2022-08-01T12:28:08.344Z,3330.00
2022-08-01T12:29:08.334Z,2908.13
2022-08-01T12:30:08.283Z,2531.25
2022-08-01T12:31:08.253Z,3735.00
2022-08-01T12:32:08.230Z,3386.25
2022-08-01T12:33:08.195Z,3577.50
2022-08-01T12:34:08.169Z,3538.13
2022-08-01T12:35:08.155Z,3380.63
2022-08-01T12:36:08.107Z,2981.25
2022-08-01T12:37:08.185Z,3318.75
2022-08-01T12:38:08.048Z,3172.50
2022-08-01T12:39:08.023Z,3391.88